EWG8ZH EDDL-EIDW
Flight info
| Callsign | EWG8ZH |
|---|---|
| Flight time | 1h 24m |
| Altitude | 36000 |
| Route | SONEB8T SONEB P64 TENLI L980 FLEVO L602 SPY DCT RAVLO Y70 OTBED L60 PENIL UL28 LELDO M145 BAGSO BAGSO4L |
| Aircraft | A320/M-SDE2E3FGHIJ1RWXY/HB1 |
Departure
| Time | 2026-05-07 08:45 |
|---|---|
| Airport | Düsseldorf Airport (EDDL) |
Arrival
| Time | 2026-05-07 10:09 |
|---|---|
| Airport | Dublin Airport (EIDW) |
| Time | Latitude | Longitude | Altitude | Speed | Heading |
|---|---|---|---|---|---|
| 2026-05-07 08:14 | 51.28016 | 6.76421 | 129 ft | 0 kts | 208° |
| 2026-05-07 08:35 | 51.28018 | 6.76422 | 128 ft | 2 kts | 208° |
| 2026-05-07 08:35 | 51.28037 | 6.76439 | 107 ft | 2 kts | 208° |
| 2026-05-07 08:36 | 51.28060 | 6.76448 | 123 ft | 4 kts | 161° |
| 2026-05-07 08:36 | 51.28081 | 6.76431 | 123 ft | 3 kts | 147° |
| 2026-05-07 08:36 | 51.28099 | 6.76412 | 124 ft | 4 kts | 144° |
| 2026-05-07 08:36 | 51.28119 | 6.76384 | 125 ft | 4 kts | 127° |
| 2026-05-07 08:37 | 51.28133 | 6.76348 | 122 ft | 4 kts | 117° |
| 2026-05-07 08:37 | 51.28145 | 6.76311 | 123 ft | 4 kts | 108° |
| 2026-05-07 08:37 | 51.28149 | 6.76271 | 124 ft | 4 kts | 81° |
| 2026-05-07 08:37 | 51.28140 | 6.76233 | 124 ft | 2 kts | 53° |
| 2026-05-07 08:38 | 51.28131 | 6.76213 | 128 ft | 0 kts | 52° |
| 2026-05-07 08:39 | 51.28133 | 6.76218 | 128 ft | 4 kts | 52° |
| 2026-05-07 08:40 | 51.28173 | 6.76256 | 127 ft | 7 kts | 2° |
| 2026-05-07 08:40 | 51.28210 | 6.76242 | 126 ft | 4 kts | 350° |
| 2026-05-07 08:40 | 51.28261 | 6.76304 | 125 ft | 14 kts | 57° |
| 2026-05-07 08:40 | 51.28315 | 6.76428 | 124 ft | 13 kts | 53° |
| 2026-05-07 08:41 | 51.28372 | 6.76532 | 125 ft | 12 kts | 51° |
| 2026-05-07 08:41 | 51.28438 | 6.76670 | 126 ft | 20 kts | 53° |
| 2026-05-07 08:41 | 51.28522 | 6.76850 | 124 ft | 20 kts | 52° |
| 2026-05-07 08:41 | 51.28614 | 6.77041 | 129 ft | 25 kts | 52° |
| 2026-05-07 08:42 | 51.28714 | 6.77251 | 129 ft | 22 kts | 53° |
| 2026-05-07 08:42 | 51.28810 | 6.77450 | 127 ft | 23 kts | 53° |
| 2026-05-07 08:42 | 51.28910 | 6.77662 | 128 ft | 25 kts | 52° |
| 2026-05-07 08:42 | 51.29015 | 6.77879 | 130 ft | 25 kts | 52° |
| 2026-05-07 08:43 | 51.29116 | 6.78093 | 132 ft | 22 kts | 52° |
| 2026-05-07 08:43 | 51.29186 | 6.78218 | 136 ft | 9 kts | 29° |
| 2026-05-07 08:43 | 51.29234 | 6.78220 | 137 ft | 6 kts | 338° |
| 2026-05-07 08:43 | 51.29271 | 6.78181 | 138 ft | 9 kts | 313° |
| 2026-05-07 08:44 | 51.29301 | 6.78059 | 139 ft | 17 kts | 270° |
| 2026-05-07 08:44 | 51.29157 | 6.77703 | 131 ft | 73 kts | 232° |
| 2026-05-07 08:44 | 51.28707 | 6.76762 | 126 ft | 136 kts | 233° |
| 2026-05-07 08:44 | 51.28098 | 6.75430 | 543 ft | 149 kts | 237° |
| 2026-05-07 08:45 | 51.27475 | 6.74092 | 1230 ft | 152 kts | 235° |
| 2026-05-07 08:45 | 51.26871 | 6.72632 | 1522 ft | 170 kts | 250° |
| 2026-05-07 08:45 | 51.26868 | 6.70686 | 1767 ft | 187 kts | 300° |
| 2026-05-07 08:45 | 51.27831 | 6.69322 | 2342 ft | 189 kts | 334° |
| 2026-05-07 08:46 | 51.28630 | 6.68780 | 2821 ft | 188 kts | 345° |
| 2026-05-07 08:46 | 51.29946 | 6.68556 | 3320 ft | 200 kts | 6° |
| 2026-05-07 08:46 | 51.31415 | 6.68852 | 3695 ft | 223 kts | 6° |
| 2026-05-07 08:46 | 51.33034 | 6.69069 | 4204 ft | 243 kts | 4° |
| 2026-05-07 08:47 | 51.35327 | 6.69297 | 5263 ft | 253 kts | 3° |
| 2026-05-07 08:47 | 51.36522 | 6.69396 | 5847 ft | 256 kts | 2° |
| 2026-05-07 08:47 | 51.38328 | 6.69555 | 6636 ft | 263 kts | 3° |
| 2026-05-07 08:47 | 51.40157 | 6.69667 | 7434 ft | 267 kts | 1° |
| 2026-05-07 08:48 | 51.42028 | 6.69683 | 8271 ft | 271 kts | 359° |
| 2026-05-07 08:48 | 51.43927 | 6.69653 | 9098 ft | 275 kts | 359° |
| 2026-05-07 08:48 | 51.45868 | 6.69615 | 9893 ft | 280 kts | 359° |
| 2026-05-07 08:48 | 51.47849 | 6.69597 | 10534 ft | 290 kts | 360° |
| 2026-05-07 08:49 | 51.49950 | 6.69601 | 10763 ft | 314 kts | 360° |
| 2026-05-07 08:49 | 51.52173 | 6.69607 | 11118 ft | 330 kts | 359° |
| 2026-05-07 08:49 | 51.54482 | 6.69612 | 11853 ft | 334 kts | 359° |
| 2026-05-07 08:49 | 51.56830 | 6.69618 | 12564 ft | 338 kts | 359° |
| 2026-05-07 08:50 | 51.59197 | 6.69623 | 13285 ft | 343 kts | 359° |
| 2026-05-07 08:50 | 51.61603 | 6.69633 | 13970 ft | 347 kts | 0° |
| 2026-05-07 08:50 | 51.64035 | 6.69924 | 14598 ft | 351 kts | 1° |
| 2026-05-07 08:50 | 51.66467 | 6.69503 | 15208 ft | 353 kts | 342° |
| 2026-05-07 08:51 | 51.68747 | 6.67996 | 15841 ft | 355 kts | 334° |
| 2026-05-07 08:51 | 51.70971 | 6.66328 | 16468 ft | 358 kts | 334° |
| 2026-05-07 08:51 | 51.73244 | 6.64598 | 17097 ft | 362 kts | 333° |
| 2026-05-07 08:51 | 51.75532 | 6.62844 | 17714 ft | 365 kts | 333° |
| 2026-05-07 08:52 | 51.77843 | 6.61073 | 18325 ft | 369 kts | 333° |
| 2026-05-07 08:52 | 51.80182 | 6.59288 | 18869 ft | 372 kts | 333° |
| 2026-05-07 08:52 | 51.82505 | 6.57515 | 19409 ft | 375 kts | 333° |
| 2026-05-07 08:52 | 51.84873 | 6.55705 | 19969 ft | 378 kts | 333° |
| 2026-05-07 08:53 | 51.87261 | 6.53876 | 20523 ft | 381 kts | 333° |
| 2026-05-07 08:53 | 51.89676 | 6.52029 | 21084 ft | 384 kts | 333° |
| 2026-05-07 08:53 | 51.92103 | 6.50173 | 21629 ft | 387 kts | 333° |
| 2026-05-07 08:53 | 51.94552 | 6.48298 | 22185 ft | 390 kts | 333° |
| 2026-05-07 08:54 | 51.97017 | 6.46409 | 22727 ft | 393 kts | 333° |
| 2026-05-07 08:54 | 51.99501 | 6.44500 | 23250 ft | 396 kts | 333° |
| 2026-05-07 08:54 | 52.01969 | 6.42599 | 23738 ft | 399 kts | 333° |
| 2026-05-07 08:54 | 52.04490 | 6.40653 | 24157 ft | 401 kts | 333° |
| 2026-05-07 08:55 | 52.07029 | 6.38695 | 24582 ft | 404 kts | 333° |
| 2026-05-07 08:55 | 52.09575 | 6.36729 | 24999 ft | 406 kts | 333° |
| 2026-05-07 08:55 | 52.12132 | 6.34746 | 25405 ft | 408 kts | 333° |
| 2026-05-07 08:55 | 52.14693 | 6.32753 | 25787 ft | 410 kts | 333° |
| 2026-05-07 08:56 | 52.17304 | 6.30723 | 26177 ft | 413 kts | 333° |
| 2026-05-07 08:56 | 52.19847 | 6.28661 | 26558 ft | 414 kts | 328° |
| 2026-05-07 08:56 | 52.22202 | 6.25948 | 26920 ft | 415 kts | 318° |
| 2026-05-07 08:56 | 52.24194 | 6.22593 | 27287 ft | 416 kts | 307° |
| 2026-05-07 08:57 | 52.25820 | 6.18622 | 27655 ft | 417 kts | 297° |
| 2026-05-07 08:57 | 52.26984 | 6.14268 | 27997 ft | 419 kts | 289° |
| 2026-05-07 08:57 | 52.27958 | 6.09763 | 28355 ft | 421 kts | 289° |
| 2026-05-07 08:57 | 52.28911 | 6.05349 | 28689 ft | 423 kts | 289° |
| 2026-05-07 08:58 | 52.29907 | 6.00733 | 29036 ft | 425 kts | 289° |
| 2026-05-07 08:58 | 52.30891 | 5.96167 | 29357 ft | 427 kts | 289° |
| 2026-05-07 08:58 | 52.31881 | 5.91563 | 29664 ft | 429 kts | 289° |
| 2026-05-07 08:58 | 52.32870 | 5.86943 | 29990 ft | 431 kts | 289° |
| 2026-05-07 08:59 | 52.33862 | 5.82301 | 30261 ft | 433 kts | 289° |
| 2026-05-07 08:59 | 52.34844 | 5.77701 | 30498 ft | 434 kts | 289° |
| 2026-05-07 08:59 | 52.35840 | 5.73019 | 30734 ft | 436 kts | 289° |
| 2026-05-07 08:59 | 52.36832 | 5.68317 | 30970 ft | 438 kts | 288° |
| 2026-05-07 09:00 | 52.37826 | 5.63586 | 31191 ft | 439 kts | 288° |
| 2026-05-07 09:00 | 52.38826 | 5.58835 | 31431 ft | 440 kts | 288° |
| 2026-05-07 09:00 | 52.39812 | 5.54158 | 31749 ft | 439 kts | 289° |
| 2026-05-07 09:00 | 52.40807 | 5.49430 | 32085 ft | 439 kts | 288° |
| 2026-05-07 09:01 | 52.41797 | 5.44701 | 32393 ft | 438 kts | 288° |
| 2026-05-07 09:01 | 52.42787 | 5.39972 | 32684 ft | 438 kts | 288° |
| 2026-05-07 09:01 | 52.43777 | 5.35244 | 32998 ft | 437 kts | 288° |
| 2026-05-07 09:01 | 52.44719 | 5.30728 | 33295 ft | 437 kts | 288° |
| 2026-05-07 09:02 | 52.45705 | 5.25994 | 33606 ft | 437 kts | 288° |
| 2026-05-07 09:02 | 52.46675 | 5.21327 | 33903 ft | 436 kts | 288° |
| 2026-05-07 09:02 | 52.47652 | 5.16603 | 34182 ft | 436 kts | 288° |
| 2026-05-07 09:02 | 52.48618 | 5.11889 | 34421 ft | 436 kts | 288° |
| 2026-05-07 09:03 | 52.49589 | 5.07144 | 34666 ft | 436 kts | 288° |
| 2026-05-07 09:03 | 52.50555 | 5.02430 | 34874 ft | 437 kts | 288° |
| 2026-05-07 09:03 | 52.51526 | 4.97689 | 35101 ft | 437 kts | 288° |
| 2026-05-07 09:03 | 52.52477 | 4.93019 | 35317 ft | 437 kts | 288° |
| 2026-05-07 09:04 | 52.53441 | 4.88263 | 35527 ft | 437 kts | 288° |
| 2026-05-07 09:04 | 52.54408 | 4.83527 | 35724 ft | 438 kts | 289° |
| 2026-05-07 09:04 | 52.55440 | 4.78804 | 35912 ft | 438 kts | 290° |
| 2026-05-07 09:04 | 52.56521 | 4.74129 | 36057 ft | 438 kts | 291° |
| 2026-05-07 09:05 | 52.58726 | 4.64820 | 36075 ft | 435 kts | 291° |
| 2026-05-07 09:05 | 52.60870 | 4.55560 | 36078 ft | 435 kts | 290° |
| 2026-05-07 09:06 | 52.62977 | 4.46210 | 36078 ft | 435 kts | 290° |
| 2026-05-07 09:06 | 52.65066 | 4.36834 | 36083 ft | 435 kts | 290° |
| 2026-05-07 09:07 | 52.67152 | 4.27509 | 36082 ft | 436 kts | 290° |
| 2026-05-07 09:07 | 52.69261 | 4.18122 | 36080 ft | 436 kts | 290° |
| 2026-05-07 09:08 | 52.71351 | 4.08730 | 36080 ft | 436 kts | 290° |
| 2026-05-07 09:08 | 52.73434 | 3.99296 | 36084 ft | 437 kts | 290° |
| 2026-05-07 09:09 | 52.75497 | 3.89917 | 36088 ft | 437 kts | 290° |
| 2026-05-07 09:09 | 52.77583 | 3.80464 | 36088 ft | 438 kts | 290° |
| 2026-05-07 09:10 | 52.79653 | 3.70966 | 36087 ft | 438 kts | 290° |
| 2026-05-07 09:10 | 52.81709 | 3.61478 | 36093 ft | 439 kts | 290° |
| 2026-05-07 09:11 | 52.83765 | 3.52010 | 36089 ft | 439 kts | 290° |
| 2026-05-07 09:11 | 52.85815 | 3.42489 | 36093 ft | 440 kts | 290° |
| 2026-05-07 09:12 | 52.87859 | 3.32919 | 36097 ft | 440 kts | 290° |
| 2026-05-07 09:12 | 52.89897 | 3.23349 | 36096 ft | 440 kts | 290° |
| 2026-05-07 09:13 | 52.91837 | 3.13764 | 36092 ft | 441 kts | 284° |
| 2026-05-07 09:13 | 52.93172 | 3.03814 | 36100 ft | 442 kts | 283° |
| 2026-05-07 09:14 | 52.94472 | 2.93913 | 36099 ft | 442 kts | 283° |
| 2026-05-07 09:14 | 52.95780 | 2.83926 | 36101 ft | 442 kts | 283° |
| 2026-05-07 09:15 | 52.97077 | 2.73933 | 36102 ft | 442 kts | 283° |
| 2026-05-07 09:15 | 52.98355 | 2.63998 | 36106 ft | 442 kts | 283° |
| 2026-05-07 09:16 | 52.99639 | 2.53989 | 36101 ft | 442 kts | 283° |
| 2026-05-07 09:16 | 53.00915 | 2.43968 | 36105 ft | 443 kts | 283° |
| 2026-05-07 09:17 | 53.02177 | 2.34016 | 36106 ft | 443 kts | 282° |
| 2026-05-07 09:17 | 53.03437 | 2.23976 | 36107 ft | 443 kts | 282° |
| 2026-05-07 09:18 | 53.04676 | 2.13933 | 36109 ft | 443 kts | 282° |
| 2026-05-07 09:18 | 53.05908 | 2.03897 | 36107 ft | 443 kts | 282° |
| 2026-05-07 09:19 | 53.07140 | 1.93921 | 36106 ft | 443 kts | 282° |
| 2026-05-07 09:19 | 53.08369 | 1.83861 | 36108 ft | 443 kts | 282° |
| 2026-05-07 09:20 | 53.09581 | 1.73803 | 36109 ft | 443 kts | 282° |
| 2026-05-07 09:20 | 53.10791 | 1.63735 | 36107 ft | 443 kts | 282° |
| 2026-05-07 09:21 | 53.11988 | 1.53720 | 36107 ft | 443 kts | 282° |
| 2026-05-07 09:21 | 53.13175 | 1.43631 | 36107 ft | 443 kts | 282° |
| 2026-05-07 09:22 | 53.14352 | 1.33583 | 36108 ft | 444 kts | 281° |
| 2026-05-07 09:22 | 53.15528 | 1.23486 | 36108 ft | 444 kts | 281° |
| 2026-05-07 09:23 | 53.16694 | 1.13373 | 36105 ft | 444 kts | 281° |
| 2026-05-07 09:23 | 53.17840 | 1.03309 | 36105 ft | 444 kts | 281° |
| 2026-05-07 09:24 | 53.18990 | 0.93176 | 36107 ft | 444 kts | 281° |
| 2026-05-07 09:24 | 53.20135 | 0.83039 | 36105 ft | 444 kts | 281° |
| 2026-05-07 09:25 | 53.21266 | 0.72960 | 36100 ft | 444 kts | 281° |
| 2026-05-07 09:25 | 53.22389 | 0.62799 | 36096 ft | 444 kts | 281° |
| 2026-05-07 09:26 | 53.23491 | 0.52699 | 36099 ft | 444 kts | 281° |
| 2026-05-07 09:26 | 53.24600 | 0.42519 | 36093 ft | 444 kts | 281° |
| 2026-05-07 09:27 | 53.25702 | 0.32350 | 36092 ft | 444 kts | 281° |
| 2026-05-07 09:28 | 53.27332 | 0.17116 | 36088 ft | 444 kts | 280° |
| 2026-05-07 09:28 | 53.28396 | 0.06958 | 36084 ft | 444 kts | 280° |
| 2026-05-07 09:29 | 53.29290 | -0.01529 | 36085 ft | 445 kts | 280° |
| 2026-05-07 09:29 | 53.30530 | -0.13373 | 36086 ft | 445 kts | 280° |
| 2026-05-07 09:30 | 53.31406 | -0.21849 | 36085 ft | 445 kts | 280° |
| 2026-05-07 09:30 | 53.32450 | -0.32058 | 36085 ft | 445 kts | 279° |
| 2026-05-07 09:31 | 53.33481 | -0.42261 | 36080 ft | 444 kts | 279° |
| 2026-05-07 09:31 | 53.34499 | -0.52410 | 36082 ft | 445 kts | 279° |
| 2026-05-07 09:32 | 53.35517 | -0.62659 | 36080 ft | 445 kts | 279° |
| 2026-05-07 09:32 | 53.36531 | -0.72893 | 36082 ft | 444 kts | 279° |
| 2026-05-07 09:33 | 53.37530 | -0.83051 | 36083 ft | 444 kts | 279° |
| 2026-05-07 09:33 | 53.38520 | -0.93290 | 36084 ft | 444 kts | 279° |
| 2026-05-07 09:34 | 53.39504 | -1.03508 | 36086 ft | 444 kts | 279° |
| 2026-05-07 09:34 | 53.40472 | -1.13673 | 36086 ft | 444 kts | 278° |
| 2026-05-07 09:35 | 53.41438 | -1.23908 | 36088 ft | 443 kts | 278° |
| 2026-05-07 09:35 | 53.41916 | -1.29004 | 35856 ft | 440 kts | 278° |
| 2026-05-07 09:35 | 53.42387 | -1.34073 | 35288 ft | 439 kts | 278° |
| 2026-05-07 09:35 | 53.42852 | -1.39130 | 35080 ft | 441 kts | 278° |
| 2026-05-07 09:36 | 53.43317 | -1.44223 | 35085 ft | 442 kts | 278° |
| 2026-05-07 09:36 | 53.44240 | -1.54369 | 35083 ft | 443 kts | 278° |
| 2026-05-07 09:37 | 53.45178 | -1.64605 | 35084 ft | 443 kts | 278° |
| 2026-05-07 09:37 | 53.46100 | -1.74825 | 35083 ft | 443 kts | 278° |
| 2026-05-07 09:38 | 53.47006 | -1.85057 | 35083 ft | 443 kts | 278° |
| 2026-05-07 09:38 | 53.47879 | -1.95000 | 35081 ft | 442 kts | 278° |
| 2026-05-07 09:39 | 53.48761 | -2.05168 | 35085 ft | 442 kts | 278° |
| 2026-05-07 09:39 | 53.49640 | -2.15404 | 35083 ft | 442 kts | 277° |
| 2026-05-07 09:40 | 53.50521 | -2.25647 | 35076 ft | 442 kts | 277° |
| 2026-05-07 09:40 | 53.51385 | -2.35820 | 35073 ft | 442 kts | 277° |
| 2026-05-07 09:41 | 53.52232 | -2.46023 | 35071 ft | 442 kts | 277° |
| 2026-05-07 09:41 | 53.53062 | -2.56204 | 35068 ft | 442 kts | 277° |
| 2026-05-07 09:42 | 53.53905 | -2.66510 | 35052 ft | 442 kts | 277° |
| 2026-05-07 09:42 | 53.54732 | -2.76692 | 35058 ft | 442 kts | 277° |
| 2026-05-07 09:43 | 53.55557 | -2.86937 | 35056 ft | 441 kts | 276° |
| 2026-05-07 09:43 | 53.56368 | -2.97176 | 35054 ft | 441 kts | 276° |
| 2026-05-07 09:44 | 53.57174 | -3.07409 | 35054 ft | 441 kts | 276° |
| 2026-05-07 09:44 | 53.57571 | -3.12542 | 34883 ft | 442 kts | 276° |
| 2026-05-07 09:44 | 53.57964 | -3.17664 | 34639 ft | 442 kts | 276° |
| 2026-05-07 09:44 | 53.58350 | -3.22742 | 34402 ft | 443 kts | 276° |
| 2026-05-07 09:45 | 53.58739 | -3.27881 | 34051 ft | 441 kts | 276° |
| 2026-05-07 09:45 | 53.59127 | -3.32990 | 33443 ft | 438 kts | 276° |
| 2026-05-07 09:45 | 53.59510 | -3.38070 | 32897 ft | 434 kts | 276° |
| 2026-05-07 09:45 | 53.59887 | -3.43073 | 32353 ft | 430 kts | 276° |
| 2026-05-07 09:46 | 53.60260 | -3.48050 | 31810 ft | 426 kts | 276° |
| 2026-05-07 09:46 | 53.60626 | -3.52989 | 31278 ft | 423 kts | 276° |
| 2026-05-07 09:46 | 53.60985 | -3.57890 | 30748 ft | 420 kts | 275° |
| 2026-05-07 09:46 | 53.61340 | -3.62760 | 30228 ft | 417 kts | 276° |
| 2026-05-07 09:47 | 53.61951 | -3.67528 | 29658 ft | 415 kts | 286° |
| 2026-05-07 09:47 | 53.62955 | -3.71987 | 29180 ft | 411 kts | 291° |
| 2026-05-07 09:47 | 53.64029 | -3.76424 | 28691 ft | 406 kts | 290° |
| 2026-05-07 09:47 | 53.65084 | -3.80815 | 28205 ft | 401 kts | 290° |
| 2026-05-07 09:48 | 53.66125 | -3.85163 | 27747 ft | 397 kts | 290° |
| 2026-05-07 09:48 | 53.67148 | -3.89468 | 27290 ft | 393 kts | 290° |
| 2026-05-07 09:48 | 53.68157 | -3.93734 | 26844 ft | 389 kts | 290° |
| 2026-05-07 09:48 | 53.69157 | -3.97959 | 26407 ft | 386 kts | 290° |
| 2026-05-07 09:49 | 53.70151 | -4.02154 | 25965 ft | 383 kts | 290° |
| 2026-05-07 09:49 | 53.71113 | -4.06333 | 25528 ft | 379 kts | 286° |
| 2026-05-07 09:49 | 53.71710 | -4.10630 | 25098 ft | 374 kts | 275° |
| 2026-05-07 09:49 | 53.71909 | -4.14972 | 24659 ft | 370 kts | 271° |
| 2026-05-07 09:50 | 53.72063 | -4.19314 | 24208 ft | 368 kts | 271° |
| 2026-05-07 09:50 | 53.72222 | -4.23615 | 23752 ft | 367 kts | 271° |
| 2026-05-07 09:50 | 53.72381 | -4.27847 | 23254 ft | 365 kts | 271° |
| 2026-05-07 09:50 | 53.72545 | -4.32116 | 22789 ft | 362 kts | 271° |
| 2026-05-07 09:51 | 53.72706 | -4.36352 | 22332 ft | 359 kts | 271° |
| 2026-05-07 09:51 | 53.72861 | -4.40550 | 21875 ft | 356 kts | 271° |
| 2026-05-07 09:51 | 53.73012 | -4.44705 | 21422 ft | 354 kts | 271° |
| 2026-05-07 09:51 | 53.73159 | -4.48804 | 20969 ft | 351 kts | 271° |
| 2026-05-07 09:52 | 53.73305 | -4.52921 | 20513 ft | 350 kts | 271° |
| 2026-05-07 09:52 | 53.73450 | -4.57020 | 20071 ft | 348 kts | 271° |
| 2026-05-07 09:52 | 53.73592 | -4.61098 | 19625 ft | 346 kts | 271° |
| 2026-05-07 09:52 | 53.73731 | -4.65152 | 19179 ft | 344 kts | 271° |
| 2026-05-07 09:53 | 53.73866 | -4.69142 | 18746 ft | 343 kts | 271° |
| 2026-05-07 09:53 | 53.73999 | -4.73177 | 18303 ft | 342 kts | 271° |
| 2026-05-07 09:53 | 53.74129 | -4.77192 | 17817 ft | 340 kts | 271° |
| 2026-05-07 09:53 | 53.74256 | -4.81122 | 17399 ft | 337 kts | 271° |
| 2026-05-07 09:54 | 53.74386 | -4.85065 | 16971 ft | 334 kts | 271° |
| 2026-05-07 09:54 | 53.74517 | -4.88965 | 16562 ft | 332 kts | 271° |
| 2026-05-07 09:54 | 53.74644 | -4.92866 | 16135 ft | 330 kts | 271° |
| 2026-05-07 09:54 | 53.74768 | -4.96735 | 15726 ft | 328 kts | 271° |
| 2026-05-07 09:55 | 53.74891 | -5.00570 | 15316 ft | 326 kts | 271° |
| 2026-05-07 09:55 | 53.75010 | -5.04343 | 14913 ft | 325 kts | 271° |
| 2026-05-07 09:55 | 53.75129 | -5.08153 | 14503 ft | 323 kts | 271° |
| 2026-05-07 09:55 | 53.75226 | -5.11940 | 14104 ft | 321 kts | 266° |
| 2026-05-07 09:56 | 53.74948 | -5.15656 | 13689 ft | 317 kts | 254° |
| 2026-05-07 09:56 | 53.74160 | -5.19078 | 13410 ft | 307 kts | 237° |
| 2026-05-07 09:56 | 53.72834 | -5.21773 | 13330 ft | 293 kts | 219° |
| 2026-05-07 09:56 | 53.71146 | -5.23540 | 13259 ft | 280 kts | 206° |
| 2026-05-07 09:57 | 53.69530 | -5.25272 | 13182 ft | 275 kts | 221° |
| 2026-05-07 09:57 | 53.68146 | -5.27455 | 13129 ft | 276 kts | 223° |
| 2026-05-07 09:57 | 53.66747 | -5.29680 | 13063 ft | 276 kts | 223° |
| 2026-05-07 09:57 | 53.65351 | -5.31907 | 12998 ft | 276 kts | 223° |
| 2026-05-07 09:58 | 53.63955 | -5.34132 | 12929 ft | 276 kts | 223° |
| 2026-05-07 09:58 | 53.62565 | -5.36349 | 12868 ft | 275 kts | 223° |
| 2026-05-07 09:58 | 53.61169 | -5.38576 | 12623 ft | 275 kts | 223° |
| 2026-05-07 09:58 | 53.59782 | -5.40790 | 12292 ft | 273 kts | 223° |
| 2026-05-07 09:59 | 53.58423 | -5.42958 | 11949 ft | 272 kts | 222° |
| 2026-05-07 09:59 | 53.57051 | -5.45150 | 11594 ft | 271 kts | 222° |
| 2026-05-07 09:59 | 53.55682 | -5.47333 | 11237 ft | 270 kts | 222° |
| 2026-05-07 09:59 | 53.54316 | -5.49503 | 10877 ft | 270 kts | 222° |
| 2026-05-07 10:00 | 53.52953 | -5.51670 | 10517 ft | 269 kts | 222° |
| 2026-05-07 10:00 | 53.51596 | -5.53825 | 10158 ft | 268 kts | 222° |
| 2026-05-07 10:00 | 53.50236 | -5.55977 | 10043 ft | 270 kts | 222° |
| 2026-05-07 10:00 | 53.48879 | -5.58124 | 9864 ft | 273 kts | 222° |
| 2026-05-07 10:01 | 53.47483 | -5.60337 | 9383 ft | 274 kts | 222° |
| 2026-05-07 10:01 | 53.46095 | -5.62531 | 8891 ft | 275 kts | 222° |
| 2026-05-07 10:01 | 53.44713 | -5.64709 | 8581 ft | 270 kts | 222° |
| 2026-05-07 10:01 | 53.43466 | -5.66677 | 8016 ft | 267 kts | 222° |
| 2026-05-07 10:02 | 53.42109 | -5.68821 | 7514 ft | 268 kts | 222° |
| 2026-05-07 10:02 | 53.40755 | -5.70956 | 7069 ft | 268 kts | 222° |
| 2026-05-07 10:02 | 53.39404 | -5.73074 | 6746 ft | 264 kts | 222° |
| 2026-05-07 10:02 | 53.38065 | -5.75173 | 6323 ft | 263 kts | 222° |
| 2026-05-07 10:03 | 53.36754 | -5.77232 | 6121 ft | 249 kts | 222° |
| 2026-05-07 10:03 | 53.35556 | -5.79124 | 5878 ft | 232 kts | 224° |
| 2026-05-07 10:03 | 53.34710 | -5.81330 | 5555 ft | 224 kts | 252° |
| 2026-05-07 10:03 | 53.34670 | -5.83938 | 5373 ft | 232 kts | 282° |
| 2026-05-07 10:04 | 53.35512 | -5.86314 | 4839 ft | 244 kts | 313° |
| 2026-05-07 10:04 | 53.36706 | -5.88283 | 4540 ft | 240 kts | 312° |
| 2026-05-07 10:04 | 53.37880 | -5.90293 | 4095 ft | 236 kts | 311° |
| 2026-05-07 10:04 | 53.38985 | -5.92210 | 3935 ft | 224 kts | 311° |
| 2026-05-07 10:05 | 53.39970 | -5.94205 | 3839 ft | 220 kts | 296° |
| 2026-05-07 10:05 | 53.40414 | -5.96563 | 3604 ft | 206 kts | 272° |
| 2026-05-07 10:05 | 53.40545 | -5.98863 | 3376 ft | 194 kts | 273° |
| 2026-05-07 10:05 | 53.40674 | -6.01093 | 3108 ft | 190 kts | 272° |
| 2026-05-07 10:06 | 53.40798 | -6.03267 | 2840 ft | 185 kts | 272° |
| 2026-05-07 10:06 | 53.40919 | -6.05375 | 2590 ft | 179 kts | 272° |
| 2026-05-07 10:06 | 53.41036 | -6.07424 | 2347 ft | 172 kts | 272° |
| 2026-05-07 10:06 | 53.41146 | -6.09354 | 2116 ft | 160 kts | 272° |
| 2026-05-07 10:07 | 53.41248 | -6.11147 | 1905 ft | 151 kts | 272° |
| 2026-05-07 10:07 | 53.41345 | -6.12874 | 1736 ft | 147 kts | 272° |
| 2026-05-07 10:07 | 53.41441 | -6.14586 | 1445 ft | 147 kts | 272° |
| 2026-05-07 10:07 | 53.41534 | -6.16279 | 1259 ft | 146 kts | 272° |
| 2026-05-07 10:08 | 53.41631 | -6.17964 | 1075 ft | 145 kts | 272° |
| 2026-05-07 10:08 | 53.41726 | -6.19652 | 893 ft | 146 kts | 272° |
| 2026-05-07 10:08 | 53.41821 | -6.21348 | 682 ft | 146 kts | 273° |
| 2026-05-07 10:08 | 53.41916 | -6.23044 | 507 ft | 146 kts | 273° |
| 2026-05-07 10:09 | 53.41999 | -6.24581 | 319 ft | 145 kts | 273° |
| 2026-05-07 10:09 | 53.42086 | -6.26233 | 212 ft | 130 kts | 276° |
| 2026-05-07 10:09 | 53.42156 | -6.27470 | 210 ft | 82 kts | 275° |
| 2026-05-07 10:09 | 53.42200 | -6.28123 | 213 ft | 36 kts | 292° |
| 2026-05-07 10:10 | 53.42277 | -6.28291 | 212 ft | 21 kts | 318° |
| 2026-05-07 10:10 | 53.42334 | -6.28320 | 211 ft | 2 kts | 25° |
| 2026-05-07 10:10 | 53.42335 | -6.28319 | 211 ft | 0 kts | 27° |
| 2026-05-07 10:11 | 53.42365 | -6.28284 | 215 ft | 10 kts | 52° |
| 2026-05-07 10:11 | 53.42366 | -6.28127 | 211 ft | 18 kts | 96° |
| 2026-05-07 10:11 | 53.42355 | -6.27917 | 211 ft | 18 kts | 95° |
| 2026-05-07 10:11 | 53.42343 | -6.27704 | 211 ft | 17 kts | 95° |
| 2026-05-07 10:12 | 53.42336 | -6.27570 | 213 ft | 18 kts | 94° |
| 2026-05-07 10:12 | 53.42319 | -6.27277 | 213 ft | 20 kts | 96° |
| 2026-05-07 10:12 | 53.42307 | -6.27046 | 219 ft | 20 kts | 95° |
| 2026-05-07 10:12 | 53.42297 | -6.26891 | 211 ft | 21 kts | 96° |
| 2026-05-07 10:13 | 53.42282 | -6.26644 | 211 ft | 20 kts | 95° |
| 2026-05-07 10:13 | 53.42274 | -6.26436 | 217 ft | 16 kts | 95° |
| 2026-05-07 10:13 | 53.42263 | -6.26245 | 216 ft | 17 kts | 95° |
| 2026-05-07 10:13 | 53.42256 | -6.26046 | 211 ft | 17 kts | 78° |
| 2026-05-07 10:14 | 53.42314 | -6.25880 | 215 ft | 16 kts | 47° |
| 2026-05-07 10:14 | 53.42395 | -6.25739 | 211 ft | 17 kts | 45° |
| 2026-05-07 10:14 | 53.42472 | -6.25609 | 211 ft | 15 kts | 45° |
| 2026-05-07 10:14 | 53.42547 | -6.25480 | 210 ft | 16 kts | 46° |
| 2026-05-07 10:15 | 53.42632 | -6.25335 | 211 ft | 18 kts | 45° |
| 2026-05-07 10:15 | 53.42698 | -6.25224 | 211 ft | 12 kts | 45° |
| 2026-05-07 10:15 | 53.42754 | -6.25128 | 211 ft | 9 kts | 45° |
| 2026-05-07 10:15 | 53.42776 | -6.25088 | 211 ft | 0 kts | 47° |
| 2026-05-07 10:16 | 53.42783 | -6.25076 | 217 ft | 4 kts | 49° |
| 2026-05-07 10:16 | 53.42795 | -6.25008 | 212 ft | 7 kts | 87° |
| 2026-05-07 10:16 | 53.42796 | -6.24941 | 211 ft | 6 kts | 85° |
| 2026-05-07 10:16 | 53.42798 | -6.24891 | 215 ft | 2 kts | 86° |
| 2026-05-07 10:17 | 53.42798 | -6.24883 | 219 ft | 1 kts | 86° |
| 2026-05-07 10:17 | 53.42798 | -6.24882 | 219 ft | 0 kts | 86° |